This is the latest recevied weather packets stored in our database for station/object N7CW. If no packets are shown the sender has not sent any weather packets the latest 10 day(s).
| Time | Temp. | Humidity | Pressure | Rain* | Wind** | Luminosity | Snow |
|---|---|---|---|---|---|---|---|
| 1777548602 | 7.22° C | 30% | 1015.5 hPa | 0 mm | - | 0 W/m² | - |
| 1777548298 | 6.67° C | 32% | 1015.5 hPa | 0 mm | - | 0 W/m² | - |
| 1777547995 | 7.78° C | 29% | 1015.7 hPa | 0 mm | - | 0 W/m² | - |
| 1777547691 | 8.33° C | 27% | 1015.9 hPa | 0 mm | - | 0 W/m² | - |
| 1777547388 | 7.78° C | 28% | 1015.8 hPa | 0 mm | - | 0 W/m² | - |
| 1777547086 | 7.78° C | 28% | 1015.5 hPa | 0 mm | - | 0 W/m² | - |
| 1777546783 | 7.22° C | 29% | 1015.7 hPa | 0 mm | - | 0 W/m² | - |
| 1777546480 | 7.78° C | 28% | 1015.7 hPa | 0 mm | - | 0 W/m² | - |
| 1777546176 | 7.78° C | 27% | 1015.9 hPa | 0 mm | - | 0 W/m² | - |
| 1777545873 | 6.67° C | 27% | 1015.8 hPa | 0 mm | - | 0 W/m² | - |
| 1777545570 | 7.22° C | 28% | 1015.8 hPa | 0 mm | - | 0 W/m² | - |
| 1777545266 | 6.67° C | 28% | 1016 hPa | 0 mm | - | 0 W/m² | - |
| 1777544964 | 7.78° C | 27% | 1016.1 hPa | 0 mm | - | 0 W/m² | - |
| 1777544660 | 6.67° C | 27% | 1016 hPa | 0 mm | - | 0 W/m² | - |
| 1777544356 | 7.22° C | 28% | 1016 hPa | 0 mm | - | 0 W/m² | - |
| 1777544053 | 7.78° C | 26% | 1016 hPa | 0 mm | - | 0 W/m² | - |
| 1777543751 | 7.78° C | 26% | 1016 hPa | 0 mm | - | 0 W/m² | - |
| 1777543446 | 7.22° C | 26% | 1016.1 hPa | 0 mm | - | 0 W/m² | - |
| 1777543142 | 7.78° C | 27% | 1016.1 hPa | 0 mm | - | 0 W/m² | - |
| 1777542838 | 7.78° C | 26% | 1016.1 hPa | 0 mm | - | 0 W/m² | - |
| 1777542535 | 6.67° C | 28% | 1016.2 hPa | 0 mm | - | 0 W/m² | - |
| 1777542231 | 6.67° C | 27% | 1016.2 hPa | 0 mm | - | 0 W/m² | - |
| 1777541929 | 6.67° C | 30% | 1016.1 hPa | 0 mm | - | 0 W/m² | - |
| 1777541626 | 6.67° C | 29% | 1016.4 hPa | 0 mm | - | 0 W/m² | - |
| 1777541323 | 7.78° C | 26% | 1016.2 hPa | 0 mm | - | 0 W/m² | - |
* Rain latest hour (hover to see other rain measurements)
** Current wind speed in m/s (hover to see current wind gust speed)